Time;durP1;ratioP1;P1;durP2;ratioP2;P2;SDS_P1;SDS_P2;PMS_P1;PMS_P2;Temp;Humidity;BMP_temperature;BMP_pressure;BME280_temperature;BME280_humidity;BME280_pressure;Samples;Min_cycle;Max_cycle;Signal;HPM_P1;HPM_P2
2021/01/26 00:01:10;;;;;;;5.28;3.15;;;;;;;23.35;35.75;93472.66;4951982;29;20034;-71
2021/01/26 00:03:35;;;;;;;5.32;3.70;;;;;;;23.36;35.88;93485.00;4952054;29;20498;-72
2021/01/26 00:06:01;;;;;;;5.20;3.00;;;;;;;23.34;35.61;93493.00;4952081;28;20520;-72
2021/01/26 00:08:26;;;;;;;4.85;3.40;;;;;;;23.30;35.52;93459.94;4951636;29;20035;-72
2021/01/26 00:10:52;;;;;;;5.32;3.40;;;;;;;23.31;35.67;93461.41;4952117;28;20031;-72
2021/01/26 00:13:17;;;;;;;4.45;3.17;;;;;;;23.33;35.54;93458.13;4951818;29;20027;-72
2021/01/26 00:15:43;;;;;;;5.05;3.10;;;;;;;23.30;35.84;93451.75;4934950;29;20023;-72
2021/01/26 00:18:09;;;;;;;5.18;3.05;;;;;;;23.21;35.76;93437.97;4951575;28;20027;-72
2021/01/26 00:20:34;;;;;;;5.72;3.13;;;;;;;23.27;35.75;93450.13;4950624;28;20074;-72
2021/01/26 00:23:00;;;;;;;4.70;3.20;;;;;;;23.26;35.90;93447.94;4951454;28;20031;-72
2021/01/26 00:25:27;;;;;;;4.80;3.20;;;;;;;23.26;35.56;93454.16;4951488;28;20031;-72
2021/01/26 00:27:53;;;;;;;4.32;2.97;;;;;;;23.22;35.83;93437.44;4966582;28;20134;-72
2021/01/26 00:30:24;;;;;;;4.90;2.95;;;;;;;23.24;35.51;93451.22;4950218;29;20114;-72
2021/01/26 00:32:50;;;;;;;5.13;3.47;;;;;;;23.20;35.95;93440.00;4950414;29;20024;-72
2021/01/26 00:35:21;;;;;;;5.13;2.97;;;;;;;23.24;35.76;93434.88;4951713;28;20511;-72
2021/01/26 00:37:46;;;;;;;4.80;3.30;;;;;;;23.21;35.93;93427.81;4951275;29;20035;-72
2021/01/26 00:40:12;;;;;;;4.60;3.03;;;;;;;23.23;35.95;93427.25;4950294;28;20027;-71
2021/01/26 00:42:38;;;;;;;5.22;2.97;;;;;;;23.12;35.98;93412.03;4951658;28;20027;-72
2021/01/26 00:45:05;;;;;;;3.65;2.65;;;;;;;23.10;35.70;93419.28;4951424;29;20424;-72
2021/01/26 00:47:30;;;;;;;5.10;3.03;;;;;;;23.20;35.84;93422.91;4950008;29;20030;-72
2021/01/26 00:49:56;;;;;;;4.88;3.00;;;;;;;23.20;35.72;93407.31;4950153;29;20050;-72
2021/01/26 00:52:22;;;;;;;3.75;2.63;;;;;;;23.14;35.80;93431.28;4951168;28;20496;-71
2021/01/26 00:54:47;;;;;;;4.15;3.05;;;;;;;23.18;36.07;93420.00;4951052;28;20420;-72
2021/01/26 00:57:19;;;;;;;5.22;3.00;;;;;;;23.06;35.65;93403.34;4951359;28;20031;-72
2021/01/26 00:59:47;;;;;;;5.88;2.90;;;;;;;23.13;36.07;93429.81;4950111;29;20094;-72
2021/01/26 01:02:13;;;;;;;4.40;2.42;;;;;;;23.13;36.02;93418.91;4951254;28;20038;-72
2021/01/26 01:04:38;;;;;;;4.03;2.45;;;;;;;23.09;35.72;93407.69;4950370;28;20481;-72
2021/01/26 01:07:03;;;;;;;4.38;2.90;;;;;;;23.10;35.77;93409.13;4951127;29;20043;-72
2021/01/26 01:09:29;;;;;;;4.40;2.88;;;;;;;23.09;36.06;93407.69;4950971;29;20055;-72
2021/01/26 01:11:54;;;;;;;3.88;2.72;;;;;;;23.08;36.00;93406.22;4951155;29;20138;-72
2021/01/26 01:14:20;;;;;;;4.03;2.65;;;;;;;23.10;35.89;93409.13;4949833;29;20015;-72
2021/01/26 01:16:46;;;;;;;3.85;2.50;;;;;;;23.01;35.84;93401.50;4950736;29;20094;-71
2021/01/26 01:19:11;;;;;;;4.05;2.60;;;;;;;23.03;36.06;93390.81;4951057;29;20032;-72
2021/01/26 01:21:37;;;;;;;4.35;2.80;;;;;;;23.09;35.87;93415.84;4950841;28;20492;-72
2021/01/26 01:24:02;;;;;;;4.00;2.30;;;;;;;23.08;35.71;93395.34;4950712;29;20026;-72
2021/01/26 01:26:28;;;;;;;4.05;2.67;;;;;;;23.09;35.99;93385.91;4950801;29;20050;-72
2021/01/26 01:28:53;;;;;;;4.63;2.60;;;;;;;23.09;36.04;93407.69;4950815;29;20054;-71
2021/01/26 01:31:19;;;;;;;3.90;2.40;;;;;;;23.08;35.67;93389.88;4949419;29;20031;-72
2021/01/26 01:33:44;;;;;;;4.18;2.60;;;;;;;23.08;36.08;93392.59;4950576;29;20022;-72
2021/01/26 01:36:10;;;;;;;4.10;2.83;;;;;;;23.08;36.02;93394.63;4950929;28;20031;-72
2021/01/26 01:38:35;;;;;;;3.97;2.60;;;;;;;23.05;35.95;93401.16;4958073;28;20492;-72
2021/01/26 01:41:01;;;;;;;3.70;2.42;;;;;;;23.08;36.14;93389.16;4950717;28;20071;-71
2021/01/26 01:43:26;;;;;;;4.25;2.80;;;;;;;23.07;36.04;93388.44;4950802;28;20035;-72
2021/01/26 01:45:51;;;;;;;4.38;2.47;;;;;;;23.07;36.12;93391.16;4950911;28;20038;-72
2021/01/26 01:48:23;;;;;;;3.65;2.50;;;;;;;23.05;35.44;93403.88;4948896;29;20027;-72
2021/01/26 01:51:13;;;;;;;3.60;2.40;;;;;;;23.04;35.79;93384.06;4966219;28;20038;-72
2021/01/26 01:53:41;;;;;;;3.75;2.40;;;;;;;22.94;35.78;93366.84;4969235;28;20038;-72
2021/01/26 01:56:11;;;;;;;4.22;2.72;;;;;;;23.01;36.17;93374.28;4969113;28;20070;-72
2021/01/26 01:58:43;;;;;;;3.95;2.15;;;;;;;23.00;36.13;93370.13;4969033;28;20027;-72
2021/01/26 02:01:13;;;;;;;3.70;2.15;;;;;;;22.99;36.08;93382.28;4978021;28;20054;-72
2021/01/26 02:03:45;;;;;;;3.00;2.20;;;;;;;22.98;35.97;93353.59;4972125;28;20035;-72
2021/01/26 02:06:10;;;;;;;4.43;3.08;;;;;;;23.00;35.88;93356.50;4973456;28;20034;-72
2021/01/26 02:08:53;;;;;;;3.33;2.47;;;;;;;23.00;35.98;93359.22;4973358;28;20455;-72
2021/01/26 02:11:19;;;;;;;2.95;2.00;;;;;;;23.00;35.98;93342.16;4961698;28;20425;-72
2021/01/26 02:13:45;;;;;;;3.20;2.00;;;;;;;22.98;35.83;93337.25;4954124;28;20031;-72
2021/01/26 02:16:10;;;;;;;3.58;2.10;;;;;;;23.01;35.96;93349.78;4953932;28;20030;-72
2021/01/26 02:18:57;;;;;;;2.70;1.80;;;;;;;22.99;35.80;93349.59;4952578;28;20030;-72
2021/01/26 02:21:26;;;;;;;3.38;2.10;;;;;;;22.99;35.98;93327.81;4966807;28;20023;-72
2021/01/26 02:24:03;;;;;;;2.97;2.28;;;;;;;22.99;35.96;93333.28;4953935;28;20098;-72
2021/01/26 02:27:19;;;;;;;4.10;2.10;;;;;;;22.99;36.09;93333.28;4968870;28;20054;-72
2021/01/26 02:30:05;;;;;;;4.13;2.00;;;;;;;22.98;35.99;93337.25;4952249;28;20043;-72
2021/01/26 02:32:52;;;;;;;3.40;1.98;;;;;;;22.99;35.88;93349.59;4968490;28;20130;-72
2021/01/26 02:35:36;;;;;;;2.60;1.70;;;;;;;22.89;35.83;93318.72;4953422;28;20027;-72
2021/01/26 02:38:16;;;;;;;3.78;1.85;;;;;;;22.96;36.13;93328.19;4952492;29;20425;-72
2021/01/26 02:41:21;;;;;;;3.08;1.83;;;;;;;22.93;35.72;93330.00;4952331;29;20043;-72
2021/01/26 02:44:06;;;;;;;2.45;1.70;;;;;;;22.97;36.21;93324.94;4938782;29;20432;-72
2021/01/26 02:46:37;;;;;;;3.10;1.67;;;;;;;22.99;36.14;93327.81;4952063;29;20523;-71
2021/01/26 02:49:06;;;;;;;3.15;1.92;;;;;;;23.00;35.96;93342.16;4953209;28;20031;-72
2021/01/26 02:51:38;;;;;;;2.75;1.70;;;;;;;22.99;36.01;93349.59;4936497;29;20090;-71
2021/01/26 02:54:16;;;;;;;2.90;1.95;;;;;;;22.98;36.17;93348.16;4953405;28;20507;-72
2021/01/26 02:57:03;;;;;;;2.20;1.63;;;;;;;22.98;35.85;93350.88;4953485;28;20023;-72
2021/01/26 02:59:51;;;;;;;2.70;2.00;;;;;;;22.96;35.99;93345.25;4952836;29;20058;-72
2021/01/26 03:02:23;;;;;;;2.80;1.65;;;;;;;22.94;35.82;93345.09;4951129;28;20412;-73
2021/01/26 03:05:03;;;;;;;2.53;1.85;;;;;;;22.94;36.46;93331.47;4951847;29;20520;-72
2021/01/26 03:07:29;;;;;;;2.35;1.63;;;;;;;22.95;36.14;93360.13;4952058;28;20054;-71
2021/01/26 03:09:58;;;;;;;2.80;1.80;;;;;;;22.94;36.10;93352.50;4952049;29;20085;-72
2021/01/26 03:12:32;;;;;;;2.85;1.70;;;;;;;22.94;35.87;93336.91;4935920;29;20488;-72
2021/01/26 03:15:04;;;;;;;2.35;1.60;;;;;;;22.87;35.76;93319.81;4935657;29;20031;-71
2021/01/26 03:17:34;;;;;;;2.67;1.60;;;;;;;22.92;35.96;93349.59;4936171;29;20057;-71
2021/01/26 03:20:09;;;;;;;2.90;1.60;;;;;;;22.93;35.91;93359.94;4951866;28;20031;-72
2021/01/26 03:22:34;;;;;;;4.05;2.00;;;;;;;22.94;36.18;93391.34;4952469;28;20074;-72
2021/01/26 03:25:00;;;;;;;3.08;1.55;;;;;;;22.92;35.91;93372.06;4951346;29;20408;-72
2021/01/26 03:27:30;;;;;;;2.75;1.70;;;;;;;22.88;36.06;93366.28;4935556;29;20023;-72
2021/01/26 03:29:58;;;;;;;3.28;1.77;;;;;;;22.90;36.09;93366.47;4935746;29;20154;-72
2021/01/26 03:32:26;;;;;;;2.55;1.60;;;;;;;22.89;36.18;93362.28;4951741;29;20516;-72
2021/01/26 03:34:53;;;;;;;2.63;1.60;;;;;;;22.88;35.97;93371.72;4935691;29;20031;-71
2021/01/26 03:37:18;;;;;;;2.38;1.38;;;;;;;22.87;36.02;93369.56;4951296;29;20031;-72
2021/01/26 03:39:44;;;;;;;2.90;1.33;;;;;;;22.90;36.08;93385.50;4952340;29;20027;-71
2021/01/26 03:42:09;;;;;;;2.80;1.73;;;;;;;22.88;35.93;93371.72;4952495;28;20034;-72
2021/01/26 03:44:35;;;;;;;2.22;1.33;;;;;;;22.88;36.02;93392.03;4952277;29;20031;-72
2021/01/26 03:47:09;;;;;;;2.63;1.58;;;;;;;22.88;36.13;93375.72;4950617;29;20027;-72
2021/01/26 03:49:37;;;;;;;1.85;1.20;;;;;;;22.88;35.93;93386.59;4952267;28;20035;-72
2021/01/26 03:52:11;;;;;;;2.08;1.10;;;;;;;22.88;35.98;93366.28;4952220;28;20034;-72
2021/01/26 03:54:44;;;;;;;2.53;1.40;;;;;;;22.88;35.90;93365.53;4952076;28;20110;-72
2021/01/26 03:57:46;;;;;;;2.85;1.42;;;;;;;22.88;35.91;93378.44;4935273;29;20027;-72
2021/01/26 04:00:13;;;;;;;2.42;1.50;;;;;;;22.88;35.84;93355.41;4952063;28;20447;-71
2021/01/26 04:02:49;;;;;;;3.08;1.40;;;;;;;22.83;35.94;93368.47;4950606;29;20038;-72
2021/01/26 04:05:20;;;;;;;2.60;1.30;;;;;;;22.82;35.82;93377.88;4935492;29;20034;-72
2021/01/26 04:07:49;;;;;;;3.05;1.40;;;;;;;22.87;36.20;93379.69;4950757;29;20499;-72
2021/01/26 04:10:19;;;;;;;2.83;1.40;;;;;;;22.85;35.86;93388.41;4950332;29;20050;-72
2021/01/26 04:12:45;;;;;;;2.33;1.23;;;;;;;22.85;36.06;93382.97;4950755;29;20027;-71
2021/01/26 04:15:27;;;;;;;2.38;1.30;;;;;;;22.77;35.54;93370.66;4950555;28;20035;-71
2021/01/26 04:17:53;;;;;;;3.17;1.35;;;;;;;22.84;36.11;93386.22;4936067;29;20031;-72
2021/01/26 04:20:27;;;;;;;2.10;1.30;;;;;;;22.85;36.04;93387.69;4934677;29;20034;-72
2021/01/26 04:22:57;;;;;;;2.90;1.42;;;;;;;22.81;35.96;93376.44;4934894;29;20518;-72
2021/01/26 04:25:29;;;;;;;2.58;1.45;;;;;;;22.85;36.16;93387.69;4934362;29;20043;-72
2021/01/26 04:27:54;;;;;;;2.45;1.40;;;;;;;22.84;36.01;93397.13;4951705;29;20039;-72
2021/01/26 04:30:20;;;;;;;2.47;1.30;;;;;;;22.83;36.03;93395.69;4950188;29;20468;-72
2021/01/26 04:32:46;;;;;;;2.45;1.17;;;;;;;22.81;35.75;93398.19;4951670;28;20039;-72
2021/01/26 04:35:11;;;;;;;1.92;1.15;;;;;;;22.84;36.15;93369.91;4950098;29;20496;-71
2021/01/26 04:37:37;;;;;;;2.50;1.27;;;;;;;22.86;36.16;93400.75;4951428;28;20453;-72
2021/01/26 04:40:06;;;;;;;2.05;1.20;;;;;;;22.84;36.12;93397.13;4950090;29;20038;-71
2021/01/26 04:42:32;;;;;;;2.47;1.10;;;;;;;22.84;36.27;93381.53;4950108;29;20027;-72
2021/01/26 04:45:13;;;;;;;2.28;1.20;;;;;;;22.84;35.95;93380.78;4934102;29;20482;-72
2021/01/26 04:47:42;;;;;;;2.33;1.30;;;;;;;22.83;35.99;93390.25;4949746;29;20043;-71
2021/01/26 04:50:14;;;;;;;2.42;1.23;;;;;;;22.75;35.80;93384.06;4951126;28;20031;-72
2021/01/26 04:53:02;;;;;;;1.92;1.20;;;;;;;22.84;35.72;93391.66;4949756;29;20527;-71
2021/01/26 04:55:59;;;;;;;2.03;1.27;;;;;;;22.82;35.79;93416.00;4949894;29;20031;-72
2021/01/26 04:58:24;;;;;;;1.92;1.17;;;;;;;22.83;36.03;93395.69;4951447;28;20448;-72
2021/01/26 05:01:05;;;;;;;2.80;1.42;;;;;;;22.74;36.16;93394.22;4951107;29;20046;-71
2021/01/26 05:03:36;;;;;;;2.33;1.20;;;;;;;22.83;35.96;93418.16;4950891;29;20051;-72
2021/01/26 05:06:03;;;;;;;2.17;1.15;;;;;;;22.79;35.95;93417.06;4963083;28;20504;-72
2021/01/26 05:08:32;;;;;;;2.35;1.27;;;;;;;22.75;35.78;93411.25;4969054;28;20026;-72
2021/01/26 05:11:25;;;;;;;2.00;1.20;;;;;;;22.79;35.70;93411.63;4953042;28;20101;-72
2021/01/26 05:14:03;;;;;;;2.30;1.27;;;;;;;22.78;35.72;93412.91;4968344;28;20058;-72
2021/01/26 05:16:51;;;;;;;2.30;1.20;;;;;;;22.78;36.02;93418.34;4949949;28;20045;-72
2021/01/26 05:19:28;;;;;;;2.05;1.20;;;;;;;22.65;35.82;93396.75;4950850;28;20029;-72
2021/01/26 05:22:02;;;;;;;1.90;1.00;;;;;;;22.79;35.91;93427.97;4949753;28;20047;-71
2021/01/26 05:24:34;;;;;;;2.50;1.10;;;;;;;22.79;36.04;93433.41;4950685;28;20039;-71
2021/01/26 05:27:00;;;;;;;1.95;1.08;;;;;;;22.69;35.82;93419.63;4970598;28;20059;-72
2021/01/26 05:29:26;;;;;;;2.30;1.10;;;;;;;22.77;35.78;93447.56;4972246;28;20027;-72
2021/01/26 05:31:55;;;;;;;2.55;1.20;;;;;;;22.76;35.71;93431.78;4972089;28;20034;-71
2021/01/26 05:34:21;;;;;;;3.22;1.27;;;;;;;22.78;35.97;93438.13;4972053;28;20042;-72
2021/01/26 05:36:46;;;;;;;2.15;1.10;;;;;;;22.76;36.01;93446.09;4956790;28;20047;-72
2021/01/26 05:39:15;;;;;;;2.60;1.40;;;;;;;22.79;35.67;93436.13;4972356;28;20027;-72
2021/01/26 05:41:41;;;;;;;1.92;1.10;;;;;;;22.76;35.73;93445.38;4940291;29;20085;-72
2021/01/26 05:44:06;;;;;;;2.08;1.42;;;;;;;22.77;35.81;93457.72;4956806;28;20815;-71
2021/01/26 05:46:37;;;;;;;1.73;1.08;;;;;;;22.76;35.86;93456.25;4971714;28;20067;-72
2021/01/26 05:49:03;;;;;;;2.15;1.10;;;;;;;22.74;35.92;93458.81;4955497;29;20027;-72
2021/01/26 05:51:28;;;;;;;2.30;1.30;;;;;;;22.71;35.91;93470.78;4956988;28;20085;-72
2021/01/26 05:54:01;;;;;;;2.22;1.10;;;;;;;22.76;36.05;93467.16;4955770;29;20026;-72
2021/01/26 05:56:27;;;;;;;2.15;1.20;;;;;;;22.77;36.13;93457.72;4971587;28;20503;-71
2021/01/26 05:58:53;;;;;;;2.35;1.17;;;;;;;22.69;35.97;93473.28;4940115;29;20031;-72
2021/01/26 06:01:30;;;;;;;2.10;1.30;;;;;;;22.75;35.81;93471.13;4955660;28;20031;-72
2021/01/26 06:04:12;;;;;;;2.25;1.20;;;;;;;22.77;35.80;93465.88;4956040;28;20055;-73
2021/01/26 06:06:58;;;;;;;2.50;1.20;;;;;;;22.79;36.02;93482.41;4955439;28;20039;-72
2021/01/26 06:09:37;;;;;;;2.70;1.23;;;;;;;22.84;35.66;93489.66;4952993;28;20058;-73
2021/01/26 06:12:08;;;;;;;2.67;1.20;;;;;;;22.85;35.97;93486.38;4956200;28;20062;-74
2021/01/26 06:14:33;;;;;;;2.10;1.20;;;;;;;22.84;35.63;93501.28;4955892;28;20023;-73
2021/01/26 06:17:22;;;;;;;2.30;1.40;;;;;;;22.85;35.73;93507.44;4954064;28;20098;-73
2021/01/26 06:20:01;;;;;;;1.67;1.10;;;;;;;22.89;35.71;93520.16;4953991;28;20050;-73
2021/01/26 06:22:27;;;;;;;2.47;1.10;;;;;;;22.92;35.57;93523.78;4955979;29;20055;-71
2021/01/26 06:24:52;;;;;;;1.65;1.00;;;;;;;22.88;35.88;93513.28;4960893;28;20062;-74
2021/01/26 06:27:40;;;;;;;2.20;1.15;;;;;;;23.00;35.82;93547.06;4956079;28;20568;-74
2021/01/26 06:30:36;;;;;;;2.05;1.10;;;;;;;23.07;35.85;93551.78;4960871;28;20046;-74
2021/01/26 06:33:04;;;;;;;2.45;1.35;;;;;;;23.15;35.61;93568.88;4961549;28;20023;-74
2021/01/26 06:35:42;;;;;;;2.85;1.30;;;;;;;23.16;35.44;93556.72;4955478;28;20027;-74
2021/01/26 06:38:29;;;;;;;2.20;1.10;;;;;;;23.30;35.06;93585.22;4934474;29;20039;-73
2021/01/26 06:40:58;;;;;;;2.58;1.05;;;;;;;23.34;35.57;93577.44;4962157;28;20035;-72
2021/01/26 06:43:44;;;;;;;2.05;1.17;;;;;;;23.42;35.30;93587.09;4947750;28;20039;-72
2021/01/26 06:46:39;;;;;;;2.40;1.10;;;;;;;23.50;35.25;93589.81;4951049;28;20865;-74
2021/01/26 06:49:26;;;;;;;2.05;1.30;;;;;;;23.56;34.60;93591.09;4954082;28;20537;-74
2021/01/26 06:52:10;;;;;;;2.08;0.90;;;;;;;23.67;35.00;93595.47;4963685;28;20553;-74
2021/01/26 06:54:48;;;;;;;1.88;1.05;;;;;;;23.76;35.07;93603.09;4953562;28;20779;-75
2021/01/26 06:57:13;;;;;;;2.00;1.00;;;;;;;23.84;34.46;93609.28;4965754;28;20027;-76
2021/01/26 06:59:49;;;;;;;1.67;1.00;;;;;;;23.91;34.80;93620.91;4957154;28;20676;-83
2021/01/26 07:02:38;;;;;;;1.77;1.05;;;;;;;23.99;34.55;93621.66;4953302;29;20514;-81
2021/01/26 07:05:12;;;;;;;2.38;1.10;;;;;;;24.04;34.42;93620.72;4951510;28;20039;-76
2021/01/26 07:07:53;;;;;;;1.67;1.08;;;;;;;24.09;34.02;93625.25;4952929;28;20030;-72
2021/01/26 07:10:29;;;;;;;2.08;1.30;;;;;;;24.24;34.22;93638.88;4952679;28;20031;-73
2021/01/26 07:13:31;;;;;;;1.35;0.88;;;;;;;24.30;33.71;93635.97;4951991;28;20077;-72
2021/01/26 07:16:25;;;;;;;2.40;1.10;;;;;;;24.37;33.67;93661.25;4952169;28;20031;-76
2021/01/26 07:19:24;;;;;;;2.30;1.10;;;;;;;24.44;33.56;93676.19;4952097;28;20082;-74
2021/01/26 07:22:06;;;;;;;2.20;1.07;;;;;;;24.54;33.32;93669.63;4951258;28;20412;-76
2021/01/26 07:24:50;;;;;;;1.75;1.00;;;;;;;24.60;33.62;93677.59;4954230;28;20297;-74
2021/01/26 07:27:31;;;;;;;1.90;1.10;;;;;;;24.60;33.31;93683.06;4950448;29;20043;-74
2021/01/26 07:30:27;;;;;;;1.80;0.90;;;;;;;24.64;33.57;93683.44;4957260;28;20033;-72
2021/01/26 07:33:11;;;;;;;2.60;1.20;;;;;;;24.70;33.47;93697.63;4957626;28;20130;-73
2021/01/26 07:35:47;;;;;;;2.50;1.10;;;;;;;24.72;33.15;93689.59;4950064;28;20027;-73
2021/01/26 07:38:42;;;;;;;2.38;1.33;;;;;;;24.71;33.43;93699.06;4951052;29;20035;-72
2021/01/26 07:41:12;;;;;;;2.17;0.82;;;;;;;24.63;32.94;93698.34;4960232;28;20035;-74
2021/01/26 07:43:48;;;;;;;2.00;1.38;;;;;;;24.63;33.08;93715.44;4959484;28;20110;-75
2021/01/26 07:46:37;;;;;;;2.03;1.10;;;;;;;24.68;33.00;93711.81;4957419;28;20035;-71
2021/01/26 07:49:28;;;;;;;2.10;1.20;;;;;;;24.73;32.86;93718.34;4939526;28;20101;-71
2021/01/26 07:51:57;;;;;;;2.55;1.58;;;;;;;24.78;33.12;93733.81;4953340;28;20106;-71
2021/01/26 07:54:40;;;;;;;2.08;0.90;;;;;;;24.77;33.00;93740.53;4950381;28;20035;-71
2021/01/26 07:57:05;;;;;;;1.35;1.08;;;;;;;24.67;33.27;93743.13;4951094;28;20023;-71
2021/01/26 07:59:33;;;;;;;1.85;1.05;;;;;;;24.71;33.00;93748.19;4952004;28;20038;-71
2021/01/26 08:02:00;;;;;;;1.90;1.17;;;;;;;24.66;33.11;93751.84;4949493;29;20507;-71
2021/01/26 08:04:29;;;;;;;2.08;1.08;;;;;;;24.56;33.71;93761.88;4966495;28;20055;-71
2021/01/26 08:06:58;;;;;;;2.03;1.00;;;;;;;24.48;33.28;93769.31;4949787;29;20065;-71
2021/01/26 08:09:43;;;;;;;1.65;1.00;;;;;;;24.38;33.53;93779.34;4949937;28;20732;-71
2021/01/26 08:12:14;;;;;;;2.38;1.20;;;;;;;24.42;33.26;93793.34;4950678;28;20039;-71
2021/01/26 08:14:42;;;;;;;1.95;1.00;;;;;;;24.44;33.71;93796.28;4953709;28;20026;-71
2021/01/26 08:17:11;;;;;;;1.83;1.17;;;;;;;24.45;33.43;93803.16;4953831;28;20027;-71
2021/01/26 08:19:50;;;;;;;1.58;1.10;;;;;;;24.39;33.68;93799.88;4952494;28;20023;-71
2021/01/26 08:22:32;;;;;;;2.72;1.08;;;;;;;24.35;33.57;93799.53;4946918;28;20110;-71
2021/01/26 08:25:08;;;;;;;2.15;1.00;;;;;;;24.29;33.20;93812.59;4953497;28;20035;-71
2021/01/26 08:27:58;;;;;;;2.10;1.20;;;;;;;24.23;33.48;93820.22;4954744;28;20401;-71
2021/01/26 08:30:50;;;;;;;2.33;0.90;;;;;;;24.26;33.48;93813.69;4968339;28;20178;-71
2021/01/26 08:33:19;;;;;;;1.65;1.05;;;;;;;24.16;33.43;93804.56;4947705;28;20034;-72
2021/01/26 08:36:07;;;;;;;1.90;1.20;;;;;;;24.20;34.05;93821.31;4952130;28;20420;-71
2021/01/26 08:38:56;;;;;;;2.67;1.35;;;;;;;24.19;33.99;93808.94;4956610;28;20432;-71
2021/01/26 08:41:36;;;;;;;3.83;1.05;;;;;;;24.14;34.09;93820.75;4952460;28;20358;-72
2021/01/26 08:44:04;;;;;;;1.80;1.10;;;;;;;24.10;34.01;93812.19;4949894;28;20118;-71
2021/01/26 08:46:40;;;;;;;1.95;0.85;;;;;;;24.10;34.11;93820.38;4952341;28;20055;-71
2021/01/26 08:49:18;;;;;;;2.58;1.10;;;;;;;24.08;34.41;93831.09;4949044;28;20416;-71
2021/01/26 08:51:43;;;;;;;2.75;1.00;;;;;;;23.97;34.01;93819.78;4931964;29;20047;-71
2021/01/26 08:54:09;;;;;;;2.00;1.00;;;;;;;24.01;34.26;93815.44;4915035;29;20028;-72
2021/01/26 08:56:35;;;;;;;2.28;0.90;;;;;;;23.97;34.17;93831.41;4932361;29;20028;-71
2021/01/26 08:59:01;;;;;;;1.52;0.93;;;;;;;23.88;34.53;93818.34;4930941;29;20031;-71
2021/01/26 09:01:29;;;;;;;1.50;1.00;;;;;;;23.94;34.23;93827.03;4930133;29;20058;-71
2021/01/26 09:03:56;;;;;;;3.35;1.00;;;;;;;23.90;34.32;93823.97;4932048;29;20059;-71
2021/01/26 09:06:42;;;;;;;1.90;0.85;;;;;;;23.90;34.02;93815.78;4938395;28;20081;-72
2021/01/26 09:09:11;;;;;;;2.60;1.10;;;;;;;23.83;34.23;93809.59;4970561;28;20165;-71
2021/01/26 09:11:46;;;;;;;1.93;1.03;;;;;;;23.90;34.05;93821.22;4952407;28;20504;-72
2021/01/26 09:14:26;;;;;;;2.25;0.77;;;;;;;23.86;34.02;93813.97;4950389;28;20110;-72
2021/01/26 09:17:03;;;;;;;1.83;0.90;;;;;;;23.74;33.94;93823.72;4950963;28;20436;-72
2021/01/26 09:19:53;;;;;;;3.13;0.90;;;;;;;23.52;34.35;93829.78;4933395;28;20027;-72
2021/01/26 09:22:22;;;;;;;;;;;;;;;23.40;34.52;93844.97;4964321;28;20042;-72
2021/01/26 09:24:48;;;;;;;2.17;0.98;;;;;;;23.29;35.02;93834.38;4931880;29;20528;-72
2021/01/26 09:27:20;;;;;;;2.70;1.08;;;;;;;23.31;34.90;93850.91;4914522;29;20119;-72
2021/01/26 09:29:46;;;;;;;3.40;1.00;;;;;;;23.34;34.54;93857.31;4931858;29;20532;-72
2021/01/26 09:32:12;;;;;;;1.52;0.93;;;;;;;23.41;34.70;93851.91;4931728;29;20023;-72
2021/01/26 09:34:37;;;;;;;1.15;0.63;;;;;;;23.29;34.52;93828.94;4934174;28;20118;-72
2021/01/26 09:37:22;;;;;;;1.73;0.70;;;;;;;23.46;34.62;93849.00;4933574;29;20062;-72
2021/01/26 09:39:48;;;;;;;1.30;0.80;;;;;;;23.49;34.44;93860.81;4950948;28;20039;-71
2021/01/26 09:42:21;;;;;;;2.10;1.10;;;;;;;23.51;34.25;93858.28;4949831;28;20568;-72
2021/01/26 09:45:00;;;;;;;1.67;0.90;;;;;;;23.38;34.38;93847.53;4965534;28;20701;-72
2021/01/26 09:47:29;;;;;;;1.67;0.80;;;;;;;23.42;34.17;93859.53;4965718;28;20474;-72
2021/01/26 09:50:12;;;;;;;2.47;0.90;;;;;;;23.50;34.52;93865.03;4965686;28;20118;-72
2021/01/26 09:52:38;;;;;;;1.77;0.80;;;;;;;23.50;34.22;93868.47;4950418;28;20432;-72
2021/01/26 09:55:12;;;;;;;1.42;0.80;;;;;;;23.42;33.92;93853.34;4965388;28;20109;-71
2021/01/26 09:57:38;;;;;;;1.40;0.80;;;;;;;23.40;34.22;93866.78;4950937;28;20030;-72
2021/01/26 10:00:11;;;;;;;1.90;0.80;;;;;;;23.47;34.25;93860.66;4965481;28;20050;-71
2021/01/26 10:02:37;;;;;;;1.80;0.80;;;;;;;23.42;34.06;93875.13;4947062;28;20037;-72
2021/01/26 10:05:02;;;;;;;1.90;0.80;;;;;;;23.38;34.41;93863.88;4932667;29;20492;-71
2021/01/26 10:07:28;;;;;;;2.15;0.95;;;;;;;23.39;34.27;93865.31;4954577;28;20049;-71
2021/01/26 10:09:53;;;;;;;2.45;0.95;;;;;;;23.46;34.56;93842.81;4954287;28;20035;-72
2021/01/26 10:12:26;;;;;;;1.48;0.77;;;;;;;23.42;34.14;93837.00;4949241;28;20031;-73
2021/01/26 10:15:12;;;;;;;1.55;0.77;;;;;;;23.45;34.53;93844.09;4959483;28;20027;-72
2021/01/26 10:18:03;;;;;;;1.58;0.90;;;;;;;23.47;34.45;93844.28;4956652;28;20031;-74
2021/01/26 10:20:38;;;;;;;1.73;0.90;;;;;;;23.50;34.40;93848.66;4954723;28;20043;-73
2021/01/26 10:23:05;;;;;;;1.38;0.80;;;;;;;23.53;35.14;93850.31;4955495;28;20094;-75
2021/01/26 10:25:30;;;;;;;1.55;0.80;;;;;;;23.57;35.29;93858.84;4950493;29;20107;-73
2021/01/26 10:28:06;;;;;;;1.48;0.80;;;;;;;23.63;35.45;93846.56;4955836;28;20039;-74
2021/01/26 10:30:32;;;;;;;1.42;0.70;;;;;;;23.69;34.82;93849.13;4952952;28;20081;-73
2021/01/26 10:32:57;;;;;;;2.17;1.10;;;;;;;23.73;35.21;93846.78;4935101;29;20039;-73
2021/01/26 10:35:31;;;;;;;1.23;0.70;;;;;;;23.82;34.73;93846.28;4952666;28;20123;-73
2021/01/26 10:37:57;;;;;;;1.50;0.88;;;;;;;23.86;34.38;93835.78;4951448;28;20479;-75
2021/01/26 10:40:31;;;;;;;1.30;0.80;;;;;;;23.95;34.45;93849.59;4955029;28;20023;-74
2021/01/26 10:43:05;;;;;;;1.83;0.77;;;;;;;24.04;34.27;93844.34;4950312;28;20106;-75
2021/01/26 10:45:50;;;;;;;1.15;0.80;;;;;;;24.08;33.97;93842.00;4952849;28;20023;-75
2021/01/26 10:48:33;;;;;;;1.25;0.73;;;;;;;24.16;34.55;93870.03;4950303;29;20042;-74
2021/01/26 10:51:15;;;;;;;1.90;1.00;;;;;;;24.17;34.64;93874.22;4951595;28;20031;-74
2021/01/26 10:53:47;;;;;;;1.50;0.82;;;;;;;24.16;35.93;93875.50;4953677;28;20493;-73
2021/01/26 10:56:13;;;;;;;1.50;0.90;;;;;;;24.13;36.26;93876.56;4952672;28;21922;-74
2021/01/26 10:58:42;;;;;;;1.42;0.70;;;;;;;24.19;36.26;93885.31;4951676;28;20114;-75
2021/01/26 11:01:08;;;;;;;2.07;0.80;;;;;;;24.23;35.83;93879.50;4950554;28;20027;-74
2021/01/26 11:03:34;;;;;;;1.85;0.70;;;;;;;24.34;36.14;93890.84;4950825;29;20653;-73
2021/01/26 11:06:00;;;;;;;2.08;0.80;;;;;;;24.45;35.92;93887.75;4951137;28;20034;-73
2021/01/26 11:08:26;;;;;;;2.03;0.80;;;;;;;24.51;35.81;93888.31;4953077;28;20019;-76
2021/01/26 11:10:51;;;;;;;2.45;0.85;;;;;;;24.56;36.05;93893.63;4951998;28;20030;-73
2021/01/26 11:13:17;;;;;;;1.17;0.80;;;;;;;24.57;35.57;93880.69;4952043;28;20667;-75
2021/01/26 11:15:42;;;;;;;1.40;0.75;;;;;;;24.74;35.46;93900.00;4951245;28;20435;-76
2021/01/26 11:18:08;;;;;;;2.03;0.80;;;;;;;24.73;35.59;93901.28;4961470;28;20499;-73
2021/01/26 11:20:33;;;;;;;1.60;0.88;;;;;;;24.77;35.80;93904.38;4952458;28;20031;-75
2021/01/26 11:22:59;;;;;;;1.60;0.80;;;;;;;24.78;35.76;93900.38;4953324;28;20031;-77
2021/01/26 11:25:27;;;;;;;1.77;0.70;;;;;;;24.79;35.34;93901.84;4967137;28;20495;-76
2021/01/26 11:27:53;;;;;;;1.30;0.65;;;;;;;24.72;35.30;93891.63;4955236;28;20035;-78
2021/01/26 11:30:19;;;;;;;1.40;0.60;;;;;;;24.87;35.28;93909.50;4968982;28;20097;-77
2021/01/26 11:32:44;;;;;;;1.17;0.60;;;;;;;24.89;35.21;93906.22;4954388;28;20023;-78
2021/01/26 11:35:11;;;;;;;1.67;0.70;;;;;;;24.93;34.96;93907.31;4952547;28;20023;-76
2021/01/26 11:37:37;;;;;;;1.83;0.75;;;;;;;25.03;34.90;93894.59;4952345;28;20480;-76
2021/01/26 11:40:04;;;;;;;1.30;0.80;;;;;;;25.12;34.53;93891.31;4949538;29;20026;-76
2021/01/26 11:42:30;;;;;;;1.10;0.70;;;;;;;25.18;34.25;93900.03;4951973;28;20056;-78
2021/01/26 11:44:55;;;;;;;1.50;0.90;;;;;;;25.23;34.35;93899.16;4953882;28;20038;-74
2021/01/26 11:47:20;;;;;;;1.48;0.60;;;;;;;25.25;33.96;93899.31;4956211;28;20030;-74
2021/01/26 11:49:46;;;;;;;1.33;0.73;;;;;;;25.27;34.05;93896.75;4951270;28;20046;-75
2021/01/26 11:52:11;;;;;;;1.38;0.70;;;;;;;25.31;34.43;93897.13;4952002;28;20035;-74
2021/01/26 11:54:37;;;;;;;1.70;1.00;;;;;;;25.35;33.78;93905.66;4950593;28;20023;-75
2021/01/26 11:57:02;;;;;;;1.35;0.60;;;;;;;25.39;33.96;93895.09;4951835;28;20034;-75
2021/01/26 11:59:28;;;;;;;1.73;0.70;;;;;;;25.44;33.83;93894.16;4950880;28;20031;-72